createdAt,value
2018-05-31T00:01:26.536Z,12.74
2018-05-31T00:03:52.925Z,12.72
2018-05-31T00:06:21.036Z,12.69
2018-05-31T00:08:47.566Z,12.67
2018-05-31T00:11:13.971Z,12.63
2018-05-31T00:13:40.250Z,12.60
2018-05-31T00:16:06.611Z,12.56
2018-05-31T00:18:33.042Z,12.51
2018-05-31T00:20:59.258Z,12.50
2018-05-31T00:23:25.712Z,12.46
2018-05-31T00:25:52.135Z,12.41
2018-05-31T00:28:18.369Z,12.36
2018-05-31T00:30:44.821Z,12.32
2018-05-31T00:33:11.295Z,12.30
2018-05-31T00:35:37.730Z,12.28
2018-05-31T00:38:04.233Z,12.27
2018-05-31T00:40:30.758Z,12.22
2018-05-31T00:42:57.013Z,12.18
2018-05-31T00:45:23.567Z,12.17
2018-05-31T00:47:49.917Z,12.15
2018-05-31T00:50:16.154Z,12.13
2018-05-31T00:52:42.696Z,12.12
2018-05-31T00:55:09.115Z,12.09
2018-05-31T00:57:35.303Z,12.07
2018-05-31T01:00:01.657Z,12.04
2018-05-31T01:02:27.943Z,12.00
2018-05-31T01:04:54.228Z,11.97
2018-05-31T01:07:20.513Z,11.94
2018-05-31T01:09:47.009Z,11.93
2018-05-31T01:12:13.207Z,11.91
2018-05-31T01:14:39.561Z,11.89
2018-05-31T01:17:06.052Z,11.87
2018-05-31T01:19:32.298Z,11.84
2018-05-31T01:21:58.560Z,11.81
2018-05-31T01:24:25.103Z,11.78
2018-05-31T01:26:51.344Z,11.75
2018-05-31T01:29:17.841Z,11.71
2018-05-31T01:31:44.312Z,11.67
2018-05-31T01:34:10.599Z,11.64
2018-05-31T01:36:37.150Z,11.60
2018-05-31T01:39:03.739Z,11.56
2018-05-31T01:41:30.003Z,11.53
2018-05-31T01:43:56.311Z,11.49
2018-05-31T01:46:22.806Z,11.41
2018-05-31T01:48:49.023Z,11.42
2018-05-31T01:51:15.479Z,11.37
2018-05-31T01:53:41.908Z,11.37
2018-05-31T01:56:08.137Z,11.34
2018-05-31T01:58:34.593Z,11.31
2018-05-31T02:01:00.873Z,11.29
2018-05-31T02:03:27.129Z,11.27
2018-05-31T02:05:53.518Z,11.24
2018-05-31T02:08:20.018Z,11.21
2018-05-31T02:10:46.247Z,11.16
2018-05-31T02:13:12.704Z,11.10
2018-05-31T02:15:39.130Z,11.11
2018-05-31T02:18:05.344Z,11.09
2018-05-31T02:20:31.724Z,11.08
2018-05-31T02:22:58.095Z,11.06
2018-05-31T02:25:24.348Z,11.05
2018-05-31T02:27:50.772Z,11.04
2018-05-31T02:30:17.073Z,11.02
2018-05-31T02:32:43.334Z,11.02
2018-05-31T02:35:09.791Z,11.03
2018-05-31T02:37:36.404Z,11.03
2018-05-31T02:40:02.706Z,11.00
2018-05-31T02:42:28.976Z,11.01
2018-05-31T02:44:55.399Z,11.04
2018-05-31T02:47:21.660Z,11.03
2018-05-31T02:49:48.141Z,11.05
2018-05-31T02:52:14.609Z,11.04
2018-05-31T02:54:40.827Z,11.03
2018-05-31T02:57:07.335Z,11.05
2018-05-31T02:59:33.909Z,11.04
2018-05-31T03:02:00.120Z,11.07
2018-05-31T03:04:26.413Z,11.08
2018-05-31T03:06:52.947Z,11.09
2018-05-31T03:09:19.230Z,11.11
2018-05-31T03:11:45.608Z,11.12
2018-05-31T03:14:12.033Z,11.12
2018-05-31T03:16:38.283Z,11.14
2018-05-31T03:19:04.725Z,11.15
2018-05-31T03:21:31.130Z,11.13
2018-05-31T03:23:57.351Z,11.18
2018-05-31T03:26:23.879Z,11.22
2018-05-31T03:28:50.235Z,11.24
2018-05-31T03:31:16.517Z,11.26
2018-05-31T03:33:42.919Z,11.27
2018-05-31T03:36:09.392Z,11.30
2018-05-31T03:38:35.940Z,11.33
2018-05-31T03:41:02.321Z,11.37
2018-05-31T03:43:28.747Z,11.39
2018-05-31T03:45:54.984Z,11.41
2018-05-31T03:48:21.441Z,11.41
2018-05-31T03:50:47.773Z,11.44
2018-05-31T03:53:13.982Z,11.48
2018-05-31T03:55:40.298Z,11.51
2018-05-31T03:58:06.704Z,11.54
2018-05-31T04:00:32.988Z,11.55
2018-05-31T04:02:59.512Z,11.61
2018-05-31T04:05:25.900Z,11.64
2018-05-31T04:07:52.144Z,11.67
2018-05-31T04:10:18.549Z,11.68
2018-05-31T04:12:44.990Z,11.75
2018-05-31T04:15:11.229Z,11.79
2018-05-31T04:17:37.721Z,11.82
2018-05-31T04:20:04.228Z,11.84
2018-05-31T04:22:30.422Z,11.91
2018-05-31T04:24:56.885Z,11.96
2018-05-31T04:27:23.265Z,12.01
2018-05-31T04:29:49.553Z,12.05
2018-05-31T04:32:15.899Z,12.09
2018-05-31T04:34:42.198Z,12.13
2018-05-31T04:37:08.465Z,12.18
2018-05-31T04:39:35.233Z,12.18
2018-05-31T04:42:01.581Z,12.24
2018-05-31T04:44:27.817Z,12.29
2018-05-31T04:46:54.328Z,12.34
2018-05-31T04:49:20.705Z,12.38
2018-05-31T04:51:47.056Z,12.40
2018-05-31T04:54:13.454Z,12.47
2018-05-31T04:56:39.844Z,12.52
2018-05-31T04:59:06.114Z,12.55
2018-05-31T05:01:32.525Z,12.63
2018-05-31T05:03:58.886Z,12.68
2018-05-31T05:06:25.163Z,12.72
2018-05-31T05:08:51.638Z,12.76
2018-05-31T05:11:18.009Z,12.83
2018-05-31T05:13:44.278Z,12.89
2018-05-31T05:16:10.615Z,12.93
2018-05-31T05:18:37.340Z,12.99
2018-05-31T05:21:03.615Z,13.07
2018-05-31T05:23:30.087Z,13.13
2018-05-31T05:25:56.564Z,13.19
2018-05-31T05:28:22.806Z,13.25
2018-05-31T05:30:49.216Z,13.32
2018-05-31T05:33:15.719Z,13.37
2018-05-31T05:35:41.862Z,13.44
2018-05-31T05:38:08.221Z,13.48
2018-05-31T05:40:34.600Z,13.53
2018-05-31T05:43:00.815Z,13.59
2018-05-31T05:45:27.219Z,13.66
2018-05-31T05:47:53.795Z,13.71
2018-05-31T05:50:20.039Z,13.77
2018-05-31T05:52:46.412Z,13.83
2018-05-31T05:55:12.754Z,13.88
2018-05-31T05:57:38.988Z,13.91
2018-05-31T06:00:05.396Z,13.98
2018-05-31T06:02:31.811Z,14.01
2018-05-31T06:04:58.097Z,14.05
2018-05-31T06:07:24.472Z,14.10
2018-05-31T06:09:50.944Z,14.16
2018-05-31T06:12:17.185Z,14.22
2018-05-31T06:14:43.618Z,14.27
2018-05-31T06:17:10.163Z,14.32
2018-05-31T06:19:36.386Z,14.37
2018-05-31T06:22:02.758Z,14.43
2018-05-31T06:24:29.143Z,14.48
2018-05-31T06:26:55.350Z,14.54
2018-05-31T06:29:21.785Z,14.59
2018-05-31T06:31:48.195Z,14.62
2018-05-31T06:34:14.458Z,14.68
2018-05-31T06:36:40.837Z,14.73
2018-05-31T06:39:07.171Z,14.78
2018-05-31T06:41:33.456Z,14.83
2018-05-31T06:43:59.802Z,14.86
2018-05-31T06:46:26.181Z,14.87
2018-05-31T06:48:52.384Z,14.93
2018-05-31T06:51:18.685Z,14.97
2018-05-31T06:53:44.975Z,14.99
2018-05-31T06:56:11.193Z,15.00
2018-05-31T06:58:37.624Z,14.99
2018-05-31T07:01:03.936Z,15.05
2018-05-31T07:03:30.118Z,15.08
2018-05-31T07:05:56.394Z,15.13
2018-05-31T07:08:22.718Z,15.14
2018-05-31T07:10:51.835Z,15.18
2018-05-31T07:13:18.208Z,15.23
2018-05-31T07:15:44.779Z,15.28
2018-05-31T07:18:11.015Z,15.29
2018-05-31T07:20:37.391Z,15.34
2018-05-31T07:23:03.866Z,15.35
2018-05-31T07:25:30.043Z,15.38
2018-05-31T07:27:56.420Z,15.41
2018-05-31T07:30:22.798Z,15.44
2018-05-31T07:32:49.046Z,15.46
2018-05-31T07:35:15.428Z,15.52
2018-05-31T07:37:41.938Z,15.55
2018-05-31T07:40:08.147Z,15.58
2018-05-31T07:42:34.852Z,15.60
2018-05-31T07:45:01.305Z,15.63
2018-05-31T07:47:27.607Z,15.67
2018-05-31T07:49:54.092Z,15.71
2018-05-31T07:52:20.540Z,15.75
2018-05-31T07:54:46.759Z,15.80
2018-05-31T07:57:13.142Z,15.85
2018-05-31T07:59:39.599Z,15.88
2018-05-31T08:02:05.831Z,15.91
2018-05-31T08:04:32.232Z,15.92
2018-05-31T08:06:58.606Z,15.93
2018-05-31T08:09:24.834Z,15.93
2018-05-31T08:11:51.275Z,15.95
2018-05-31T08:14:17.679Z,15.96
2018-05-31T08:16:43.943Z,16.02
2018-05-31T08:19:10.377Z,16.04
2018-05-31T08:21:36.818Z,16.09
2018-05-31T08:24:03.040Z,16.12
2018-05-31T08:26:29.369Z,16.15
2018-05-31T08:28:55.662Z,16.18
2018-05-31T08:31:21.966Z,16.23
2018-05-31T08:33:48.369Z,16.27
2018-05-31T08:36:14.910Z,16.30
2018-05-31T08:38:41.123Z,16.35
2018-05-31T08:41:07.415Z,16.40
2018-05-31T08:43:33.916Z,16.45
2018-05-31T08:46:00.124Z,16.49
2018-05-31T08:48:26.595Z,16.52
2018-05-31T08:50:53.070Z,16.51
2018-05-31T08:53:19.349Z,16.58
2018-05-31T08:55:45.726Z,16.59
2018-05-31T08:58:12.149Z,16.59
2018-05-31T09:00:38.380Z,16.63
2018-05-31T09:03:04.706Z,16.67
2018-05-31T09:05:31.109Z,16.72
2018-05-31T09:07:57.345Z,16.79
2018-05-31T09:10:23.828Z,16.88
2018-05-31T09:12:50.153Z,16.95
2018-05-31T09:15:16.445Z,17.05
2018-05-31T09:17:42.935Z,17.06
2018-05-31T09:20:09.440Z,17.10
2018-05-31T09:22:35.650Z,17.14
2018-05-31T09:25:02.145Z,17.23
2018-05-31T09:27:28.654Z,17.28
2018-05-31T09:29:54.875Z,17.31
2018-05-31T09:32:21.232Z,17.28
2018-05-31T09:34:47.687Z,17.32
2018-05-31T09:37:13.881Z,17.42
2018-05-31T09:39:40.344Z,17.52
2018-05-31T09:42:06.823Z,17.63
2018-05-31T09:44:33.352Z,17.88
2018-05-31T09:46:59.712Z,18.39
2018-05-31T09:49:26.219Z,18.91
2018-05-31T09:51:52.508Z,19.34
2018-05-31T09:54:18.994Z,19.75
2018-05-31T09:56:45.465Z,20.13
2018-05-31T09:59:11.673Z,20.48
2018-05-31T10:01:38.105Z,20.75
2018-05-31T10:04:04.500Z,20.90
2018-05-31T10:06:30.723Z,20.84
2018-05-31T10:08:57.104Z,20.83
2018-05-31T10:11:23.404Z,20.82
2018-05-31T10:14:04.687Z,20.86
2018-05-31T10:16:31.067Z,20.84
2018-05-31T10:18:57.327Z,20.83
2018-05-31T10:21:23.659Z,20.92
2018-05-31T10:23:50.054Z,21.03
2018-05-31T10:26:16.325Z,21.05
2018-05-31T10:28:42.674Z,20.98
2018-05-31T10:31:09.167Z,21.09
2018-05-31T10:33:35.367Z,21.23
2018-05-31T10:36:01.768Z,21.31
2018-05-31T10:38:28.105Z,21.32
2018-05-31T10:40:54.307Z,21.34
2018-05-31T10:43:20.741Z,21.35
2018-05-31T10:45:47.305Z,21.34
2018-05-31T10:48:13.504Z,21.37
2018-05-31T10:50:39.914Z,21.46
2018-05-31T10:53:06.367Z,21.50
2018-05-31T10:55:32.634Z,21.52
2018-05-31T10:57:59.011Z,21.58
2018-05-31T11:00:25.431Z,21.64
2018-05-31T11:02:51.628Z,21.72
2018-05-31T11:05:18.064Z,21.75
2018-05-31T11:07:44.391Z,21.77
2018-05-31T11:10:10.622Z,21.77
2018-05-31T11:12:37.042Z,21.83
2018-05-31T11:15:03.622Z,21.85
2018-05-31T11:17:29.846Z,21.84
2018-05-31T11:19:56.232Z,21.81
2018-05-31T11:22:22.658Z,21.72
2018-05-31T11:24:48.896Z,21.67
2018-05-31T11:27:15.279Z,21.68
2018-05-31T11:29:41.617Z,21.73
2018-05-31T11:32:07.839Z,21.76
2018-05-31T11:34:34.204Z,21.75
2018-05-31T11:37:00.618Z,21.73
2018-05-31T11:39:26.824Z,21.75
2018-05-31T11:41:53.287Z,21.77
2018-05-31T11:44:19.784Z,21.74
2018-05-31T11:46:46.148Z,21.79
2018-05-31T11:49:12.602Z,21.88
2018-05-31T11:51:39.006Z,21.90
2018-05-31T11:54:05.193Z,21.97
2018-05-31T11:56:31.699Z,21.98
2018-05-31T11:58:58.196Z,21.93
2018-05-31T12:01:24.491Z,21.88
2018-05-31T12:03:50.937Z,21.79
2018-05-31T12:06:17.297Z,21.80
2018-05-31T12:08:43.624Z,21.83
2018-05-31T12:11:10.088Z,21.88
2018-05-31T12:13:36.481Z,21.94
2018-05-31T12:16:02.850Z,22.00
2018-05-31T12:18:29.382Z,21.98
2018-05-31T12:20:55.861Z,22.00
2018-05-31T12:23:22.083Z,22.04
2018-05-31T12:25:48.542Z,22.03
2018-05-31T12:28:14.829Z,22.02
2018-05-31T12:30:41.061Z,22.03
2018-05-31T12:33:07.522Z,22.01
2018-05-31T12:35:33.980Z,22.02
2018-05-31T12:38:00.238Z,21.97
2018-05-31T12:40:26.675Z,21.90
2018-05-31T12:42:53.093Z,21.82
2018-05-31T12:45:19.374Z,21.83
2018-05-31T12:47:46.017Z,21.89
2018-05-31T12:50:12.329Z,21.87
2018-05-31T12:52:38.571Z,21.80
2018-05-31T12:55:04.998Z,21.75
2018-05-31T12:57:31.405Z,21.69
2018-05-31T12:59:57.607Z,21.67
2018-05-31T13:02:23.983Z,21.58
2018-05-31T13:04:50.387Z,21.50
2018-05-31T13:07:16.621Z,21.42
2018-05-31T13:09:43.113Z,21.32
2018-05-31T13:12:09.656Z,21.24
2018-05-31T13:14:35.906Z,21.12
2018-05-31T13:17:02.318Z,20.98
2018-05-31T13:19:28.724Z,20.88
2018-05-31T13:21:54.899Z,20.72
2018-05-31T13:24:21.246Z,20.55
2018-05-31T13:26:47.715Z,20.43
2018-05-31T13:29:13.938Z,20.28
2018-05-31T13:31:40.416Z,20.14
2018-05-31T13:34:06.811Z,20.05
2018-05-31T13:36:33.023Z,19.97
2018-05-31T13:38:59.393Z,19.90
2018-05-31T13:41:25.845Z,19.87
2018-05-31T13:43:52.065Z,19.89
2018-05-31T13:46:18.562Z,19.89
2018-05-31T13:48:45.131Z,19.88
2018-05-31T13:51:11.362Z,19.88
2018-05-31T13:53:37.696Z,19.89
2018-05-31T13:56:04.127Z,19.90
2018-05-31T13:58:30.346Z,19.88
2018-05-31T14:00:56.706Z,19.80
2018-05-31T14:03:23.153Z,19.67
2018-05-31T14:05:49.374Z,19.58
2018-05-31T14:08:15.852Z,19.52
2018-05-31T14:10:42.225Z,19.47
2018-05-31T14:13:08.462Z,19.44
2018-05-31T14:15:34.863Z,19.39
2018-05-31T14:18:01.319Z,19.39
2018-05-31T14:20:34.724Z,19.35
2018-05-31T14:23:01.026Z,19.25
2018-05-31T14:25:27.471Z,19.19
2018-05-31T14:27:53.774Z,19.18
2018-05-31T14:30:20.174Z,19.17
2018-05-31T14:32:46.692Z,19.11
2018-05-31T14:35:12.906Z,19.05
2018-05-31T14:37:39.366Z,18.98
2018-05-31T14:40:05.879Z,18.97
2018-05-31T14:42:32.119Z,18.97
2018-05-31T14:44:58.584Z,18.97
2018-05-31T14:47:25.038Z,18.98
2018-05-31T14:49:51.466Z,18.97
2018-05-31T14:52:17.853Z,18.96
2018-05-31T14:54:44.271Z,18.92
2018-05-31T14:57:10.536Z,18.93
2018-05-31T14:59:36.842Z,18.97
2018-05-31T15:02:03.320Z,19.04
2018-05-31T15:04:29.567Z,19.08
2018-05-31T15:06:55.907Z,19.08
2018-05-31T15:09:22.404Z,19.11
2018-05-31T15:11:48.638Z,19.10
2018-05-31T15:14:15.080Z,19.10
2018-05-31T15:19:07.532Z,19.19
2018-05-31T15:21:33.850Z,19.21
2018-05-31T15:24:00.269Z,19.25
2018-05-31T15:26:26.514Z,19.22
2018-05-31T15:28:53.000Z,19.25
2018-05-31T15:31:19.354Z,19.30
2018-05-31T15:33:45.604Z,19.25
2018-05-31T15:36:12.028Z,19.24
2018-05-31T15:38:38.327Z,19.29
2018-05-31T15:41:04.576Z,19.39
2018-05-31T15:43:30.957Z,19.41
2018-05-31T15:45:57.281Z,19.48
2018-05-31T15:48:23.482Z,19.69
2018-05-31T15:50:50.036Z,19.71
2018-05-31T15:53:16.492Z,19.67
2018-05-31T15:55:42.743Z,19.69
2018-05-31T15:58:09.133Z,19.67
2018-05-31T16:00:35.501Z,19.57
2018-05-31T16:03:01.781Z,19.55
2018-05-31T16:05:28.195Z,19.64
2018-05-31T16:07:54.600Z,19.72
2018-05-31T16:10:20.857Z,19.75
2018-05-31T16:12:47.214Z,19.71
2018-05-31T16:15:13.674Z,19.59
2018-05-31T16:17:39.945Z,19.46
2018-05-31T16:20:06.243Z,19.41
2018-05-31T16:22:32.549Z,19.36
2018-05-31T16:24:58.790Z,19.26
2018-05-31T16:27:25.155Z,19.16
2018-05-31T16:29:51.644Z,19.15
2018-05-31T16:32:17.833Z,19.05
2018-05-31T16:34:44.250Z,18.96
2018-05-31T16:37:10.720Z,18.86
2018-05-31T16:39:36.922Z,18.80
2018-05-31T16:42:03.328Z,18.70
2018-05-31T16:44:29.817Z,18.64
2018-05-31T16:46:56.106Z,18.51
2018-05-31T16:49:22.420Z,18.42
2018-05-31T16:51:49.041Z,18.37
2018-05-31T16:54:15.066Z,18.30
2018-05-31T16:56:41.425Z,18.27
2018-05-31T16:59:07.810Z,18.23
2018-05-31T17:01:34.021Z,18.19
2018-05-31T17:04:00.670Z,18.16
2018-05-31T17:06:26.934Z,18.10
2018-05-31T17:08:53.145Z,18.01
2018-05-31T17:11:19.570Z,17.99
2018-05-31T17:13:45.951Z,17.95
2018-05-31T17:16:12.233Z,17.86
2018-05-31T17:18:38.507Z,17.86
2018-05-31T17:21:04.828Z,17.84
2018-05-31T17:23:30.938Z,17.83
2018-05-31T17:25:57.068Z,17.75
2018-05-31T17:28:23.290Z,17.72
2018-05-31T17:30:49.417Z,17.67
2018-05-31T17:33:15.548Z,17.63
2018-05-31T17:35:41.677Z,17.57
2018-05-31T17:38:07.743Z,17.54
2018-05-31T17:40:33.935Z,17.52
2018-05-31T17:43:00.376Z,17.50
2018-05-31T17:45:26.553Z,17.44
2018-05-31T17:47:52.846Z,17.39
2018-05-31T17:50:19.142Z,17.37
2018-05-31T17:52:45.528Z,17.32
2018-05-31T17:55:12.018Z,17.32
2018-05-31T17:57:38.379Z,17.30
2018-05-31T18:00:04.649Z,17.26
2018-05-31T18:02:30.929Z,17.25
2018-05-31T18:04:57.230Z,17.21
2018-05-31T18:07:23.426Z,17.16
2018-05-31T18:09:49.872Z,17.11
2018-05-31T18:12:16.358Z,17.10
2018-05-31T18:14:42.626Z,17.06
2018-05-31T18:17:08.997Z,17.05
2018-05-31T18:19:35.452Z,17.07
2018-05-31T18:22:01.756Z,17.03
2018-05-31T18:24:28.263Z,16.99
2018-05-31T18:26:54.740Z,16.98
2018-05-31T18:29:20.985Z,16.86
2018-05-31T18:31:47.452Z,16.95
2018-05-31T18:34:13.750Z,16.86
2018-05-31T18:36:39.966Z,16.81
2018-05-31T18:39:06.326Z,16.77
2018-05-31T18:41:32.638Z,16.75
2018-05-31T18:43:58.920Z,16.72
2018-05-31T18:46:25.155Z,16.69
2018-05-31T18:48:51.607Z,16.67
2018-05-31T18:51:18.585Z,16.68
2018-05-31T18:53:45.030Z,16.63
2018-05-31T18:56:11.389Z,16.60
2018-05-31T18:58:37.742Z,16.57
2018-05-31T19:01:04.033Z,16.51
2018-05-31T19:03:30.452Z,16.47
2018-05-31T19:05:56.772Z,16.43
2018-05-31T19:08:23.096Z,16.40
2018-05-31T19:10:49.256Z,16.34
2018-05-31T19:13:21.369Z,16.29
2018-05-31T19:15:47.778Z,16.29
2018-05-31T19:18:19.977Z,16.24
2018-05-31T19:20:46.516Z,16.18
2018-05-31T19:23:12.837Z,16.16
2018-05-31T19:25:38.926Z,16.13
2018-05-31T19:28:05.363Z,16.09
2018-05-31T19:30:37.518Z,16.05
2018-05-31T19:33:03.783Z,16.02
2018-05-31T19:35:36.119Z,16.01
2018-05-31T19:38:02.678Z,15.99
2018-05-31T19:40:28.965Z,15.95
2018-05-31T19:43:01.212Z,15.92
2018-05-31T19:45:27.555Z,15.90
2018-05-31T19:47:53.711Z,15.84
2018-05-31T19:50:19.938Z,15.79
2018-05-31T19:52:52.265Z,15.75
2018-05-31T19:55:18.660Z,15.75
2018-05-31T19:57:50.947Z,15.77
2018-05-31T20:00:23.258Z,15.76
2018-05-31T20:02:55.579Z,15.78
2018-05-31T20:05:22.012Z,15.75
2018-05-31T20:10:40.507Z,15.65
2018-05-31T20:13:06.726Z,15.69
2018-05-31T20:15:32.925Z,15.68
2018-05-31T20:17:59.523Z,15.65
2018-05-31T20:20:25.682Z,15.62
2018-05-31T20:22:51.928Z,15.59
2018-05-31T20:25:18.261Z,15.56
2018-05-31T20:27:44.464Z,15.51
2018-05-31T20:30:10.710Z,15.39
2018-05-31T20:32:37.042Z,15.43
2018-05-31T20:35:03.296Z,15.39
2018-05-31T20:37:29.527Z,15.35
2018-05-31T20:39:56.126Z,15.35
2018-05-31T20:42:22.291Z,15.30
2018-05-31T20:44:48.503Z,15.29
2018-05-31T20:47:15.171Z,15.24
2018-05-31T20:49:41.380Z,15.16
2018-05-31T20:52:07.583Z,15.13
2018-05-31T20:54:34.144Z,15.15
2018-05-31T20:57:00.470Z,15.13
2018-05-31T20:59:26.616Z,15.11
2018-05-31T21:01:53.192Z,15.10
2018-05-31T21:04:19.400Z,15.09
2018-05-31T21:06:45.531Z,15.08
2018-05-31T21:09:12.131Z,15.05
2018-05-31T21:11:38.342Z,15.03
2018-05-31T21:14:04.599Z,15.01
2018-05-31T21:16:31.093Z,15.01
2018-05-31T21:18:57.270Z,15.00
2018-05-31T21:21:23.450Z,15.00
2018-05-31T21:23:49.953Z,14.99
2018-05-31T21:26:16.170Z,14.97
2018-05-31T21:28:42.372Z,15.01
2018-05-31T21:31:08.820Z,15.01
2018-05-31T21:33:34.997Z,14.99
2018-05-31T21:36:01.157Z,14.97
2018-05-31T21:38:27.685Z,14.97
2018-05-31T21:40:53.861Z,14.94
2018-05-31T21:43:20.009Z,14.92
2018-05-31T21:45:46.408Z,14.91
2018-05-31T21:48:12.619Z,14.93
2018-05-31T21:50:38.778Z,14.91
2018-05-31T21:53:05.196Z,14.92
2018-05-31T21:55:31.429Z,14.91
2018-05-31T21:57:58.228Z,14.90
2018-05-31T22:00:30.307Z,14.88
2018-05-31T22:02:56.455Z,14.90
2018-05-31T22:05:22.840Z,14.86
2018-05-31T22:07:49.092Z,14.86
2018-05-31T22:10:15.282Z,14.83
2018-05-31T22:12:41.761Z,14.83
2018-05-31T22:15:08.102Z,14.82
2018-05-31T22:17:34.254Z,14.79
2018-05-31T22:20:00.586Z,14.74
2018-05-31T22:22:26.947Z,14.71
2018-05-31T22:24:53.157Z,14.69
2018-05-31T22:27:19.471Z,14.69
2018-05-31T22:29:45.740Z,14.67
2018-05-31T22:32:11.986Z,14.65
2018-05-31T22:34:38.371Z,14.61
2018-05-31T22:37:04.685Z,14.58
2018-05-31T22:39:30.941Z,14.57
2018-05-31T22:41:57.332Z,14.57
2018-05-31T22:44:23.804Z,14.52
2018-05-31T22:46:49.985Z,14.49
2018-05-31T22:49:16.381Z,14.49
2018-05-31T22:51:42.801Z,14.48
2018-05-31T22:54:09.016Z,14.46
2018-05-31T22:56:35.495Z,14.45
2018-05-31T22:59:02.163Z,14.49
2018-05-31T23:01:28.312Z,14.49
2018-05-31T23:03:54.771Z,14.49
2018-05-31T23:06:21.263Z,14.46
2018-05-31T23:08:47.498Z,14.45
2018-05-31T23:11:13.886Z,14.46
2018-05-31T23:13:40.390Z,14.46
2018-05-31T23:16:06.642Z,14.47
2018-05-31T23:18:33.090Z,14.47
2018-05-31T23:20:59.495Z,14.46
2018-05-31T23:23:25.710Z,14.46
2018-05-31T23:25:52.206Z,14.46
2018-05-31T23:28:18.620Z,14.45
2018-05-31T23:30:44.835Z,14.47
2018-05-31T23:33:11.222Z,14.49
2018-05-31T23:35:37.726Z,14.50
2018-05-31T23:38:03.961Z,14.51
2018-05-31T23:40:30.451Z,14.53
2018-05-31T23:42:56.943Z,14.55
2018-05-31T23:45:23.152Z,14.57
2018-05-31T23:47:49.590Z,14.56
2018-05-31T23:50:15.948Z,14.56
2018-05-31T23:52:42.122Z,14.55
2018-05-31T23:55:08.429Z,14.54
2018-05-31T23:57:34.823Z,14.57
